Main page
METAR-TAF:

METAR-TAF

Airports :

Pointe-Noire, Congo

Pointe Noire Airport

latitude: 04-49S, longitude: 011-54E, elevation: 17 m

Current weather observation

The report was made 36 minutes ago, at 22:00 UTC
Wind 5 kt from the South
Temperature 26°C
Humidity 89%
Pressure 1013 hPa
Visibility: 8000 m
Few clouds at a height of 1000 ft

METAR: FCPP 272200Z 18005KT 8000 FEW010 26/24 Q1013 NOSIG

Time: 23:36 (22:36 UTC)

Forecast

The report was made 5 hours and 36 minutes ago, at 17:00 UTC
Forecast valid from 27 at 18 UTC to 28 at 18 UTC
Wind 7 kt from the South
Visibility: 9000 m
Scattered clouds at a height of 1300 ft
Scattered clouds at a height of 2300 ft
Becoming
from 28 at 12 UTC to 28 at 15 UTC
Scattered clouds at a height of 1500 ft
Few clouds at a height of 3000 ft, Cumulonimbus.

TAF: FCPP 271700Z 2718/2818 18007KT 9000 SCT013 SCT023 BECMG 2812/2815 SCT015 FEW030CB

Weather observations and forecasts of more than 4000 airports (METAR and TAF reports).

The available stations are represented by yellow and red dots on the map.

Hover mouse over dot to see the name of the station.

Then click to see weather observations and forecasts.

To change the map : click on the green buttons with a black cross to zoom in, on the green button with a dash to zoom out, or on the green arrows for adjacent maps.


METAR-TAF: